Time;durP1;ratioP1;P1;durP2;ratioP2;P2;SDS_P1;SDS_P2;PMS_P1;PMS_P2;Temp;Humidity;BMP_temperature;BMP_pressure;BME280_temperature;BME280_humidity;BME280_pressure;Samples;Min_cycle;Max_cycle;Signal;HPM_P1;HPM_P2
2021/11/21 00:01:47;;;;;;;;;;;;;;;;;;5015182;28;20050;-77
2021/11/21 00:04:13;;;;;;;;;;;;;;;;;;5012361;28;19923;-78
2021/11/21 00:06:39;;;;;;;;;;;;;;;;;;5011083;28;19917;-75
2021/11/21 00:09:05;;;;;;;;;;;;;;;;;;5021321;28;19913;-77
2021/11/21 00:11:31;;;;;;;;;;;;;;;;;;5016080;28;19921;-77
2021/11/21 00:13:58;;;;;;;;;;;;;;;;;;5012315;28;19929;-77
2021/11/21 00:16:24;;;;;;;;;;;;;;;;;;5018053;28;19921;-77
2021/11/21 00:18:50;;;;;;;;;;;;;;;;;;5010989;28;20663;-77
2021/11/21 00:21:15;;;;;;;;;;;;;;;;;;5011532;28;20429;-77
2021/11/21 00:23:41;;;;;;;;;;;;;;;;;;5012396;28;19921;-78
2021/11/21 00:26:07;;;;;;;;;;;;;;;;;;5012370;28;20583;-76
2021/11/21 00:28:33;;;;;;;;;;;;;;;;;;5012941;28;19921;-76
2021/11/21 00:30:59;;;;;;;;;;;;;;;;;;5013503;28;19921;-77
2021/11/21 00:33:25;;;;;;;;;;;;;;;;;;5017194;28;19921;-77
2021/11/21 00:35:51;;;;;;;;;;;;;;;;;;5019901;28;19917;-77
2021/11/21 00:38:17;;;;;;;;;;;;;;;;;;5017761;28;20348;-77
2021/11/21 00:40:42;;;;;;;;;;;;;;;;;;5017944;28;19939;-77
2021/11/21 00:43:09;;;;;;;;;;;;;;;;;;5009943;28;20285;-76
2021/11/21 00:45:34;;;;;;;;;;;;;;;;;;5018065;28;20012;-77
2021/11/21 00:48:01;;;;;;;;;;;;;;;;;;5018436;28;19997;-77
2021/11/21 00:50:27;;;;;;;;;;;;;;;;;;5011598;28;19917;-77
2021/11/21 00:52:59;;;;;;;;;;;;;;;;;;5016064;28;19913;-78
2021/11/21 00:55:35;;;;;;;;;;;;;;;;;;5020816;28;20012;-77
2021/11/21 00:58:01;;;;;;;;;;;;;;;;;;5016104;28;19975;-77
2021/11/21 01:00:27;;;;;;;;;;;;;;;;;;5014631;28;19921;-77
2021/11/21 01:02:53;;;;;;;;;;;;;;;;;;5014784;28;19917;-76
2021/11/21 01:05:19;;;;;;;;;;;;;;;;;;5020706;28;19935;-77
2021/11/21 01:07:45;;;;;;;;;;;;;;;;;;5017075;28;19921;-77
2021/11/21 01:10:11;;;;;;;;;;;;;;;;;;5019867;28;20289;-77
2021/11/21 01:12:37;;;;;;;;;;;;;;;;;;5018702;28;19919;-77
2021/11/21 01:15:03;;;;;;;;;;;;;;;;;;5020251;28;19917;-76
2021/11/21 01:17:29;;;;;;;;;;;;;;;;;;5016629;28;19921;-77
2021/11/21 01:19:59;;;;;;;;;;;;;;;;;;5015065;28;19921;-76
2021/11/21 01:22:25;;;;;;;;;;;;;;;;;;5016084;28;19917;-76
2021/11/21 01:24:51;;;;;;;;;;;;;;;;;;5018450;28;19964;-76
2021/11/21 01:27:17;;;;;;;;;;;;;;;;;;5015618;28;20045;-77
2021/11/21 01:29:43;;;;;;;;;;;;;;;;;;5011011;28;20425;-76
2021/11/21 01:32:09;;;;;;;;;;;;;;;;;;5011269;28;19972;-76
2021/11/21 01:34:34;;;;;;;;;;;;;;;;;;5016462;28;19917;-76
2021/11/21 01:37:00;;;;;;;;;;;;;;;;;;5010032;28;20394;-76
2021/11/21 01:39:26;;;;;;;;;;;;;;;;;;5019106;28;20203;-77
2021/11/21 01:41:52;;;;;;;;;;;;;;;;;;5018723;28;19913;-77
2021/11/21 01:44:18;;;;;;;;;;;;;;;;;;5010941;28;19921;-76
2021/11/21 01:46:44;;;;;;;;;;;;;;;;;;5014349;28;19920;-77
2021/11/21 01:49:10;;;;;;;;;;;;;;;;;;5019389;28;20036;-76
2021/11/21 01:51:36;;;;;;;;;;;;;;;;;;5012259;28;20004;-76
2021/11/21 01:54:02;;;;;;;;;;;;;;;;;;5016196;28;20331;-77
2021/11/21 01:56:28;;;;;;;;;;;;;;;;;;5015937;28;19960;-76
2021/11/21 01:58:54;;;;;;;;;;;;;;;;;;5013708;28;19921;-75
2021/11/21 02:01:20;;;;;;;;;;;;;;;;;;5017964;28;19921;-77
2021/11/21 02:03:46;;;;;;;;;;;;;;;;;;5013444;28;19963;-75
2021/11/21 02:06:12;;;;;;;;;;;;;;;;;;5013443;28;20698;-77
2021/11/21 02:08:37;;;;;;;;;;;;;;;;;;5017978;28;19912;-78
2021/11/21 02:11:03;;;;;;;;;;;;;;;;;;5019308;28;19913;-77
2021/11/21 02:13:29;;;;;;;;;;;;;;;;;;5016900;28;20007;-77
2021/11/21 02:15:55;;;;;;;;;;;;;;;;;;5013618;28;19922;-76
2021/11/21 02:18:22;;;;;;;;;;;;;;;;;;5020114;28;19952;-76
2021/11/21 02:20:48;;;;;;;;;;;;;;;;;;5014894;28;20036;-77
2021/11/21 02:23:14;;;;;;;;;;;;;;;;;;5016457;28;20579;-76
2021/11/21 02:25:40;;;;;;;;;;;;;;;;;;5015209;28;19913;-77
2021/11/21 02:28:06;;;;;;;;;;;;;;;;;;5019887;28;20251;-76
2021/11/21 02:30:32;;;;;;;;;;;;;;;;;;5008150;28;20071;-77
2021/11/21 02:32:58;;;;;;;;;;;;;;;;;;5017226;28;19979;-76
2021/11/21 02:35:24;;;;;;;;;;;;;;;;;;5013856;28;19963;-76
2021/11/21 02:37:50;;;;;;;;;;;;;;;;;;5011281;28;19913;-77
2021/11/21 02:40:15;;;;;;;;;;;;;;;;;;5017673;28;19944;-77
2021/11/21 02:42:42;;;;;;;;;;;;;;;;;;5016778;28;19976;-76
2021/11/21 02:45:07;;;;;;;;;;;;;;;;;;5017913;28;20135;-77
2021/11/21 02:47:34;;;;;;;;;;;;;;;;;;5017521;28;19963;-77
2021/11/21 02:50:00;;;;;;;;;;;;;;;;;;5010716;28;19940;-76
2021/11/21 02:52:26;;;;;;;;;;;;;;;;;;5013542;28;19913;-76
2021/11/21 02:54:52;;;;;;;;;;;;;;;;;;5008028;28;21162;-76
2021/11/21 02:57:18;;;;;;;;;;;;;;;;;;5018182;28;19917;-76
2021/11/21 02:59:44;;;;;;;;;;;;;;;;;;5017127;28;19913;-76
2021/11/21 03:02:10;;;;;;;;;;;;;;;;;;5017400;28;20459;-77
2021/11/21 03:04:36;;;;;;;;;;;;;;;;;;5014586;28;19913;-75
2021/11/21 03:07:02;;;;;;;;;;;;;;;;;;5013560;28;20541;-77
2021/11/21 03:09:28;;;;;;;;;;;;;;;;;;5020477;28;19920;-76
2021/11/21 03:11:54;;;;;;;;;;;;;;;;;;5011038;28;19921;-78
2021/11/21 03:14:20;;;;;;;;;;;;;;;;;;5017250;28;19917;-76
2021/11/21 03:16:47;;;;;;;;;;;;;;;;;;5014895;28;19924;-76
2021/11/21 03:19:12;;;;;;;;;;;;;;;;;;5011836;28;19920;-76
2021/11/21 03:21:38;;;;;;;;;;;;;;;;;;5015024;28;20289;-75
2021/11/21 03:24:04;;;;;;;;;;;;;;;;;;5013654;28;19920;-77
2021/11/21 03:26:30;;;;;;;;;;;;;;;;;;5014733;28;21003;-78
2021/11/21 03:28:56;;;;;;;;;;;;;;;;;;5021535;28;19921;-76
2021/11/21 03:31:22;;;;;;;;;;;;;;;;;;5013333;28;20337;-77
2021/11/21 03:33:48;;;;;;;;;;;;;;;;;;5012259;28;19964;-76
2021/11/21 03:36:14;;;;;;;;;;;;;;;;;;5013750;28;20626;-76
2021/11/21 03:38:40;;;;;;;;;;;;;;;;;;5014917;28;19914;-76
2021/11/21 03:41:05;;;;;;;;;;;;;;;;;;5014655;28;19913;-76
2021/11/21 03:43:31;;;;;;;;;;;;;;;;;;5015486;28;19972;-76
2021/11/21 03:45:57;;;;;;;;;;;;;;;;;;5015865;28;19916;-76
2021/11/21 03:48:23;;;;;;;;;;;;;;;;;;5012588;28;19924;-75
2021/11/21 03:50:49;;;;;;;;;;;;;;;;;;5018315;28;19917;-77
2021/11/21 03:53:15;;;;;;;;;;;;;;;;;;5011874;28;19913;-77
2021/11/21 03:55:41;;;;;;;;;;;;;;;;;;5013976;28;20302;-76
2021/11/21 03:58:06;;;;;;;;;;;;;;;;;;5012646;28;19924;-76
2021/11/21 04:00:32;;;;;;;;;;;;;;;;;;5008788;28;19937;-77
2021/11/21 04:02:59;;;;;;;;;;;;;;;;;;5013519;28;20385;-76
2021/11/21 04:05:25;;;;;;;;;;;;;;;;;;5013803;28;19918;-76
2021/11/21 04:07:50;;;;;;;;;;;;;;;;;;5021690;28;19925;-76
2021/11/21 04:10:16;;;;;;;;;;;;;;;;;;5016609;28;19939;-77
2021/11/21 04:12:42;;;;;;;;;;;;;;;;;;5021483;28;19936;-76
2021/11/21 04:15:08;;;;;;;;;;;;;;;;;;5016186;28;20305;-76
2021/11/21 04:17:34;;;;;;;;;;;;;;;;;;5022860;28;19920;-76
2021/11/21 04:20:00;;;;;;;;;;;;;;;;;;5018563;28;20745;-77
2021/11/21 04:22:26;;;;;;;;;;;;;;;;;;5011949;28;19917;-77
2021/11/21 04:24:52;;;;;;;;;;;;;;;;;;5019276;28;19928;-77
2021/11/21 04:27:19;;;;;;;;;;;;;;;;;;5014633;28;20387;-76
2021/11/21 04:29:45;;;;;;;;;;;;;;;;;;5013996;28;20156;-76
2021/11/21 04:32:11;;;;;;;;;;;;;;;;;;5021781;28;20327;-77
2021/11/21 04:34:37;;;;;;;;;;;;;;;;;;5013506;28;19924;-77
2021/11/21 04:37:03;;;;;;;;;;;;;;;;;;5014933;28;19917;-76
2021/11/21 04:39:28;;;;;;;;;;;;;;;;;;5020453;28;19994;-76
2021/11/21 04:41:54;;;;;;;;;;;;;;;;;;5014997;28;19925;-77
2021/11/21 04:44:20;;;;;;;;;;;;;;;;;;5022512;28;19971;-76
2021/11/21 04:46:46;;;;;;;;;;;;;;;;;;5019786;28;19967;-76
2021/11/21 04:49:12;;;;;;;;;;;;;;;;;;5014873;28;19958;-77
2021/11/21 04:51:38;;;;;;;;;;;;;;;;;;5018348;28;19924;-78
2021/11/21 04:54:09;;;;;;;;;;;;;;;;;;5023708;28;19917;-76
2021/11/21 04:56:35;;;;;;;;;;;;;;;;;;5017098;28;20400;-77
2021/11/21 04:59:01;;;;;;;;;;;;;;;;;;5011633;28;19917;-78
2021/11/21 05:01:27;;;;;;;;;;;;;;;;;;5015724;28;20408;-76
2021/11/21 05:03:53;;;;;;;;;;;;;;;;;;5015542;28;19955;-77
2021/11/21 05:06:19;;;;;;;;;;;;;;;;;;5018662;28;19948;-77
2021/11/21 05:08:45;;;;;;;;;;;;;;;;;;5017646;28;19913;-77
2021/11/21 05:11:11;;;;;;;;;;;;;;;;;;5008670;28;19917;-76
2021/11/21 05:13:37;;;;;;;;;;;;;;;;;;5018850;28;19944;-76
2021/11/21 05:16:03;;;;;;;;;;;;;;;;;;5015826;28;19921;-77
2021/11/21 05:18:28;;;;;;;;;;;;;;;;;;5014999;28;20059;-76
2021/11/21 05:20:54;;;;;;;;;;;;;;;;;;5018556;28;19917;-77
2021/11/21 05:23:20;;;;;;;;;;;;;;;;;;5023556;28;20365;-77
2021/11/21 05:25:46;;;;;;;;;;;;;;;;;;5015334;28;20052;-77
2021/11/21 05:28:12;;;;;;;;;;;;;;;;;;5016353;28;20254;-77
2021/11/21 05:30:38;;;;;;;;;;;;;;;;;;5015489;28;19917;-77
2021/11/21 05:33:04;;;;;;;;;;;;;;;;;;5016490;28;19952;-77
2021/11/21 05:35:30;;;;;;;;;;;;;;;;;;5014402;28;19917;-77
2021/11/21 05:37:57;;;;;;;;;;;;;;;;;;5017328;28;20395;-77
2021/11/21 05:40:23;;;;;;;;;;;;;;;;;;5012032;28;20000;-78
2021/11/21 05:42:49;;;;;;;;;;;;;;;;;;5017440;28;19940;-77
2021/11/21 05:45:14;;;;;;;;;;;;;;;;;;5015070;28;19913;-77
2021/11/21 05:47:41;;;;;;;;;;;;;;;;;;5016306;28;19965;-77
2021/11/21 05:50:12;;;;;;;;;;;;;;;;;;5015085;28;20297;-77
2021/11/21 05:52:38;;;;;;;;;;;;;;;;;;5016770;28;20024;-77
2021/11/21 05:55:04;;;;;;;;;;;;;;;;;;5018696;28;20035;-77
2021/11/21 05:57:29;;;;;;;;;;;;;;;;;;5014678;28;19963;-77
2021/11/21 05:59:55;;;;;;;;;;;;;;;;;;5015871;28;19913;-78
2021/11/21 06:02:21;;;;;;;;;;;;;;;;;;5022006;28;20345;-78
2021/11/21 06:04:47;;;;;;;;;;;;;;;;;;5014086;28;19945;-77
2021/11/21 06:07:13;;;;;;;;;;;;;;;;;;5015887;28;19925;-78
2021/11/21 06:09:39;;;;;;;;;;;;;;;;;;5017045;28;20320;-78
2021/11/21 06:12:05;;;;;;;;;;;;;;;;;;5016842;28;19952;-78
2021/11/21 06:14:31;;;;;;;;;;;;;;;;;;5019738;28;20282;-78
2021/11/21 06:16:57;;;;;;;;;;;;;;;;;;5021393;28;19998;-77
2021/11/21 06:19:23;;;;;;;;;;;;;;;;;;5017014;28;19916;-77
2021/11/21 06:21:49;;;;;;;;;;;;;;;;;;5016801;28;20350;-77
2021/11/21 06:24:15;;;;;;;;;;;;;;;;;;5019124;28;20413;-78
2021/11/21 06:26:42;;;;;;;;;;;;;;;;;;5020560;28;19993;-77
2021/11/21 06:29:08;;;;;;;;;;;;;;;;;;5016012;28;19913;-77
2021/11/21 06:31:34;;;;;;;;;;;;;;;;;;5016019;28;19963;-78
2021/11/21 06:34:00;;;;;;;;;;;;;;;;;;5020831;28;20320;-78
2021/11/21 06:36:26;;;;;;;;;;;;;;;;;;5015384;28;19925;-78
2021/11/21 06:38:52;;;;;;;;;;;;;;;;;;5018318;28;19921;-77
2021/11/21 06:41:18;;;;;;;;;;;;;;;;;;5016197;28;19941;-77
2021/11/21 06:43:44;;;;;;;;;;;;;;;;;;5014641;28;19917;-78
2021/11/21 06:46:10;;;;;;;;;;;;;;;;;;5015065;28;19936;-78
2021/11/21 06:48:36;;;;;;;;;;;;;;;;;;5017567;28;19983;-78
2021/11/21 06:51:03;;;;;;;;;;;;;;;;;;5019544;28;19921;-78
2021/11/21 06:53:30;;;;;;;;;;;;;;;;;;5018087;28;19917;-77
2021/11/21 06:55:56;;;;;;;;;;;;;;;;;;5014199;28;19940;-78
2021/11/21 06:58:25;;;;;;;;;;;;;;;;;;5014707;28;20008;-78
2021/11/21 07:00:51;;;;;;;;;;;;;;;;;;5013603;28;19913;-77
2021/11/21 07:03:16;;;;;;;;;;;;;;;;;;5012220;28;19975;-78
2021/11/21 07:05:42;;;;;;;;;;;;;;;;;;5012897;28;20277;-78
2021/11/21 07:08:08;;;;;;;;;;;;;;;;;;5009601;28;19928;-78
2021/11/21 07:10:34;;;;;;;;;;;;;;;;;;5012967;28;19968;-77
2021/11/21 07:13:02;;;;;;;;;;;;;;;;;;5012364;28;19944;-78
2021/11/21 07:15:28;;;;;;;;;;;;;;;;;;5015591;28;19921;-78
2021/11/21 07:17:54;;;;;;;;;;;;;;;;;;5012840;28;19921;-78
2021/11/21 07:20:20;;;;;;;;;;;;;;;;;;5012226;28;19914;-78
2021/11/21 07:22:46;;;;;;;;;;;;;;;;;;5014494;28;20361;-78
2021/11/21 07:25:12;;;;;;;;;;;;;;;;;;5015206;28;19925;-78
2021/11/21 07:27:38;;;;;;;;;;;;;;;;;;5012686;28;19913;-78
2021/11/21 07:30:04;;;;;;;;;;;;;;;;;;5011123;28;20377;-78
2021/11/21 07:32:30;;;;;;;;;;;;;;;;;;5013357;28;19968;-78
2021/11/21 07:34:56;;;;;;;;;;;;;;;;;;5014246;28;19927;-78
2021/11/21 07:37:22;;;;;;;;;;;;;;;;;;5014183;28;20105;-78
2021/11/21 07:39:48;;;;;;;;;;;;;;;;;;5017088;28;19914;-78
2021/11/21 07:42:14;;;;;;;;;;;;;;;;;;5012666;28;19943;-78
2021/11/21 07:44:39;;;;;;;;;;;;;;;;;;5013911;28;19913;-78
2021/11/21 07:47:05;;;;;;;;;;;;;;;;;;5018772;28;20427;-78
2021/11/21 07:49:31;;;;;;;;;;;;;;;;;;5017985;28;19917;-78
2021/11/21 07:51:57;;;;;;;;;;;;;;;;;;5010895;28;20039;-79
2021/11/21 07:54:23;;;;;;;;;;;;;;;;;;5016598;28;19928;-78
2021/11/21 07:56:49;;;;;;;;;;;;;;;;;;5017809;28;20427;-78
2021/11/21 07:59:15;;;;;;;;;;;;;;;;;;5011697;28;20016;-78
2021/11/21 08:01:41;;;;;;;;;;;;;;;;;;5015245;28;20401;-78
2021/11/21 08:04:10;;;;;;;;;;;;;;;;;;5007798;28;20016;-78
2021/11/21 08:06:35;;;;;;;;;;;;;;;;;;5019349;28;20239;-78
2021/11/21 08:09:01;;;;;;;;;;;;;;;;;;5010482;28;19917;-78
2021/11/21 08:11:27;;;;;;;;;;;;;;;;;;5014518;28;20015;-78
2021/11/21 08:13:54;;;;;;;;;;;;;;;;;;5014394;28;20239;-78
2021/11/21 08:16:20;;;;;;;;;;;;;;;;;;5014532;28;20160;-78
2021/11/21 08:18:45;;;;;;;;;;;;;;;;;;5020582;28;19917;-78
2021/11/21 08:21:11;;;;;;;;;;;;;;;;;;5012243;28;19921;-78
2021/11/21 08:23:37;;;;;;;;;;;;;;;;;;5014456;28;19952;-78
2021/11/21 08:26:04;;;;;;;;;;;;;;;;;;5012357;28;19918;-78
2021/11/21 08:28:30;;;;;;;;;;;;;;;;;;5012084;28;20247;-78
2021/11/21 08:30:55;;;;;;;;;;;;;;;;;;5012218;28;19920;-78
2021/11/21 08:33:21;;;;;;;;;;;;;;;;;;5012551;28;19925;-78
2021/11/21 08:35:47;;;;;;;;;;;;;;;;;;5019919;28;20424;-78
2021/11/21 08:38:13;;;;;;;;;;;;;;;;;;5019608;28;20375;-79
2021/11/21 08:40:39;;;;;;;;;;;;;;;;;;5016813;28;20017;-78
2021/11/21 08:43:05;;;;;;;;;;;;;;;;;;5023299;28;19913;-78
2021/11/21 08:45:32;;;;;;;;;;;;;;;;;;5022296;28;19925;-78
2021/11/21 08:47:58;;;;;;;;;;;;;;;;;;5023447;28;19921;-78
2021/11/21 08:50:24;;;;;;;;;;;;;;;;;;5016560;28;19921;-78
2021/11/21 08:52:50;;;;;;;;;;;;;;;;;;5013361;28;19945;-79
2021/11/21 08:55:16;;;;;;;;;;;;;;;;;;5013386;28;19914;-78
2021/11/21 08:57:42;;;;;;;;;;;;;;;;;;5015541;28;20389;-78
2021/11/21 09:00:08;;;;;;;;;;;;;;;;;;5014109;28;19921;-78
2021/11/21 09:02:34;;;;;;;;;;;;;;;;;;5016888;28;19981;-78
2021/11/21 09:05:03;;;;;;;;;;;;;;;;;;5014088;28;19923;-78
2021/11/21 09:07:29;;;;;;;;;;;;;;;;;;5022453;28;19921;-79
2021/11/21 09:09:55;;;;;;;;;;;;;;;;;;5019830;28;19913;-79
2021/11/21 09:12:22;;;;;;;;;;;;;;;;;;5027142;28;19993;-79
2021/11/21 09:14:48;;;;;;;;;;;;;;;;;;5017159;28;20340;-78
2021/11/21 09:17:13;;;;;;;;;;;;;;;;;;5010432;28;19932;-79
2021/11/21 09:19:39;;;;;;;;;;;;;;;;;;5015455;28;19944;-79
2021/11/21 09:22:05;;;;;;;;;;;;;;;;;;5024813;28;19935;-79
2021/11/21 09:24:31;;;;;;;;;;;;;;;;;;5020743;28;20484;-78
2021/11/21 09:26:57;;;;;;;;;;;;;;;;;;5023218;28;19917;-79
2021/11/21 09:29:23;;;;;;;;;;;;;;;;;;5017344;28;20371;-79
2021/11/21 09:31:49;;;;;;;;;;;;;;;;;;5019831;28;19968;-79
2021/11/21 09:34:15;;;;;;;;;;;;;;;;;;5012747;28;20044;-78
2021/11/21 09:36:42;;;;;;;;;;;;;;;;;;5013387;28;20450;-78
2021/11/21 09:39:08;;;;;;;;;;;;;;;;;;5018333;28;19917;-78
2021/11/21 09:41:34;;;;;;;;;;;;;;;;;;5017476;28;20254;-78
2021/11/21 09:44:00;;;;;;;;;;;;;;;;;;5022060;28;19921;-78
2021/11/21 09:46:26;;;;;;;;;;;;;;;;;;5014247;28;19918;-80
2021/11/21 09:48:52;;;;;;;;;;;;;;;;;;5017666;28;20239;-78
2021/11/21 09:51:20;;;;;;;;;;;;;;;;;;5012764;28;20008;-78
2021/11/21 09:53:47;;;;;;;;;;;;;;;;;;5013974;28;19914;-78
2021/11/21 09:56:13;;;;;;;;;;;;;;;;;;5028288;28;19920;-78
2021/11/21 09:58:39;;;;;;;;;;;;;;;;;;5021738;28;19959;-78
2021/11/21 10:01:05;;;;;;;;;;;;;;;;;;5025487;28;19909;-78
2021/11/21 10:03:31;;;;;;;;;;;;;;;;;;5023025;28;19962;-76
2021/11/21 10:06:06;;;;;;;;;;;;;;;;;;5026307;28;19909;-76
2021/11/21 10:08:31;;;;;;;;;;;;;;;;;;5018131;28;19916;-79
2021/11/21 10:10:57;;;;;;;;;;;;;;;;;;5024214;28;19921;-78
2021/11/21 10:13:23;;;;;;;;;;;;;;;;;;5019465;28;19917;-79
2021/11/21 10:15:49;;;;;;;;;;;;;;;;;;5024105;28;19928;-79
2021/11/21 10:18:15;;;;;;;;;;;;;;;;;;5018996;28;19913;-79
2021/11/21 10:20:41;;;;;;;;;;;;;;;;;;5026695;28;20436;-77
2021/11/21 10:23:07;;;;;;;;;;;;;;;;;;5015841;28;19956;-79
2021/11/21 10:25:33;;;;;;;;;;;;;;;;;;5016501;28;19972;-79
2021/11/21 10:27:59;;;;;;;;;;;;;;;;;;5011669;28;19914;-78
2021/11/21 10:30:25;;;;;;;;;;;;;;;;;;5019020;28;19919;-78
2021/11/21 10:32:51;;;;;;;;;;;;;;;;;;5019361;28;19936;-77
2021/11/21 10:35:18;;;;;;;;;;;;;;;;;;5017953;28;20010;-77
2021/11/21 10:37:44;;;;;;;;;;;;;;;;;;5020421;28;19928;-78
2021/11/21 10:40:11;;;;;;;;;;;;;;;;;;5023485;28;20890;-78
2021/11/21 10:42:37;;;;;;;;;;;;;;;;;;5020587;28;19936;-78
2021/11/21 10:45:03;;;;;;;;;;;;;;;;;;5025557;28;19963;-79
2021/11/21 10:47:29;;;;;;;;;;;;;;;;;;5016314;28;20441;-79
2021/11/21 10:49:55;;;;;;;;;;;;;;;;;;5019053;28;19913;-76
2021/11/21 10:52:22;;;;;;;;;;;;;;;;;;5027975;28;20184;-79
2021/11/21 10:54:48;;;;;;;;;;;;;;;;;;5030927;28;20297;-81
2021/11/21 10:57:29;;;;;;;;;;;;;;;;;;5030072;28;19920;-78
2021/11/21 10:59:55;;;;;;;;;;;;;;;;;;5027890;28;19919;-76
2021/11/21 11:02:21;;;;;;;;;;;;;;;;;;5025947;28;20621;-78
2021/11/21 11:04:47;;;;;;;;;;;;;;;;;;5026794;28;19909;-78
2021/11/21 11:07:13;;;;;;;;;;;;;;;;;;5030293;28;19913;-79
2021/11/21 11:09:39;;;;;;;;;;;;;;;;;;5026901;28;20363;-79
2021/11/21 11:12:05;;;;;;;;;;;;;;;;;;5031255;28;20001;-80
2021/11/21 11:14:31;;;;;;;;;;;;;;;;;;5027077;28;20723;-78
2021/11/21 11:16:57;;;;;;;;;;;;;;;;;;5028380;28;20027;-78
2021/11/21 11:19:24;;;;;;;;;;;;;;;;;;5024775;28;19920;-77
2021/11/21 11:21:50;;;;;;;;;;;;;;;;;;5029337;28;19909;-86
2021/11/21 11:24:16;;;;;;;;;;;;;;;;;;5024758;28;19925;-80
2021/11/21 11:26:42;;;;;;;;;;;;;;;;;;5013086;28;19944;-80
2021/11/21 11:29:07;;;;;;;;;;;;;;;;;;5016406;28;19917;-80
2021/11/21 11:31:36;;;;;;;;;;;;;;;;;;5018488;28;19917;-77
2021/11/21 11:34:04;;;;;;;;;;;;;;;;;;5016608;28;19921;-76
2021/11/21 11:36:30;;;;;;;;;;;;;;;;;;5015248;28;19925;-78
2021/11/21 11:38:56;;;;;;;;;;;;;;;;;;5025872;28;19913;-78
2021/11/21 11:41:21;;;;;;;;;;;;;;;;;;5008164;28;19943;-78
2021/11/21 11:43:48;;;;;;;;;;;;;;;;;;5006485;28;19909;-77
2021/11/21 11:46:13;;;;;;;;;;;;;;;;;;5006940;28;19910;-78
2021/11/21 11:48:39;;;;;;;;;;;;;;;;;;5006810;28;20012;-78
2021/11/21 11:51:05;;;;;;;;;;;;;;;;;;5006344;28;19933;-76
2021/11/21 11:53:31;;;;;;;;;;;;;;;;;;5006674;28;20362;-77
2021/11/21 11:55:57;;;;;;;;;;;;;;;;;;5007312;28;19936;-76
2021/11/21 11:58:23;;;;;;;;;;;;;;;;;;5006504;28;19972;-78
2021/11/21 12:00:49;;;;;;;;;;;;;;;;;;5005992;28;20409;-77
2021/11/21 12:03:15;;;;;;;;;;;;;;;;;;5007696;28;19918;-77
2021/11/21 12:05:40;;;;;;;;;;;;;;;;;;5006333;28;20377;-78
2021/11/21 12:08:06;;;;;;;;;;;;;;;;;;5007826;28;19913;-78
2021/11/21 12:10:32;;;;;;;;;;;;;;;;;;5006367;28;19939;-79
2021/11/21 12:13:01;;;;;;;;;;;;;;;;;;5008360;28;20298;-78
2021/11/21 12:15:27;;;;;;;;;;;;;;;;;;5006387;28;20575;-77
2021/11/21 12:17:52;;;;;;;;;;;;;;;;;;5006558;28;19918;-78
2021/11/21 12:20:18;;;;;;;;;;;;;;;;;;5007438;28;20435;-77
2021/11/21 12:22:44;;;;;;;;;;;;;;;;;;5006110;28;19944;-78
2021/11/21 12:25:10;;;;;;;;;;;;;;;;;;5005770;28;19917;-77
2021/11/21 12:27:37;;;;;;;;;;;;;;;;;;5006158;28;20286;-76
2021/11/21 12:30:03;;;;;;;;;;;;;;;;;;5011508;28;19968;-77
2021/11/21 12:32:30;;;;;;;;;;;;;;;;;;5029611;28;19925;-79
2021/11/21 12:34:56;;;;;;;;;;;;;;;;;;5031480;28;19913;-77
2021/11/21 12:37:22;;;;;;;;;;;;;;;;;;5031735;28;19916;-75
2021/11/21 12:39:48;;;;;;;;;;;;;;;;;;5029562;28;20430;-75
2021/11/21 12:42:16;;;;;;;;;;;;;;;;;;5029813;28;19913;-75
2021/11/21 12:44:42;;;;;;;;;;;;;;;;;;5029587;28;19913;-77
2021/11/21 12:47:07;;;;;;;;;;;;;;;;;;5027360;28;19916;-78
2021/11/21 12:49:33;;;;;;;;;;;;;;;;;;5011028;28;19909;-78
2021/11/21 12:51:59;;;;;;;;;;;;;;;;;;5009880;28;19910;-78
2021/11/21 12:54:25;;;;;;;;;;;;;;;;;;5009526;28;19909;-79
2021/11/21 12:56:51;;;;;;;;;;;;;;;;;;5009526;28;19914;-76
2021/11/21 12:59:17;;;;;;;;;;;;;;;;;;5007413;28;20440;-78
2021/11/21 13:01:44;;;;;;;;;;;;;;;;;;5009514;28;19917;-77
2021/11/21 13:04:09;;;;;;;;;;;;;;;;;;5013757;28;19909;-77
2021/11/21 13:06:35;;;;;;;;;;;;;;;;;;5029168;28;19909;-76
2021/11/21 13:09:02;;;;;;;;;;;;;;;;;;5030542;28;20409;-77
2021/11/21 13:11:28;;;;;;;;;;;;;;;;;;5030057;28;19918;-75
2021/11/21 13:13:54;;;;;;;;;;;;;;;;;;5030298;28;19913;-76
2021/11/21 13:16:20;;;;;;;;;;;;;;;;;;5028783;28;19913;-77
2021/11/21 13:18:46;;;;;;;;;;;;;;;;;;5021324;28;19909;-78
2021/11/21 13:21:14;;;;;;;;;;;;;;;;;;5013453;28;19948;-76
2021/11/21 13:23:40;;;;;;;;;;;;;;;;;;5028419;28;20377;-77
2021/11/21 13:26:13;;;;;;;;;;;;;;;;;;5029835;28;19967;-77
2021/11/21 13:28:39;;;;;;;;;;;;;;;;;;5028879;28;19942;-77
2021/11/21 13:31:04;;;;;;;;;;;;;;;;;;5027172;28;19913;-75
2021/11/21 13:33:30;;;;;;;;;;;;;;;;;;5027919;28;19932;-78
2021/11/21 13:35:56;;;;;;;;;;;;;;;;;;5028224;28;20294;-77
2021/11/21 13:38:22;;;;;;;;;;;;;;;;;;5024699;28;19914;-77
2021/11/21 13:40:48;;;;;;;;;;;;;;;;;;5008434;28;19909;-77
2021/11/21 13:43:14;;;;;;;;;;;;;;;;;;5008789;28;19909;-77
2021/11/21 13:45:40;;;;;;;;;;;;;;;;;;5008582;28;20366;-76
2021/11/21 13:48:06;;;;;;;;;;;;;;;;;;5008587;28;19952;-77
2021/11/21 13:50:31;;;;;;;;;;;;;;;;;;5008338;28;20016;-76
2021/11/21 13:52:57;;;;;;;;;;;;;;;;;;5008646;28;19925;-76
2021/11/21 13:55:27;;;;;;;;;;;;;;;;;;5010334;28;19917;-79
2021/11/21 13:57:56;;;;;;;;;;;;;;;;;;5008534;28;19963;-78
2021/11/21 14:00:25;;;;;;;;;;;;;;;;;;5006302;28;20222;-77
2021/11/21 14:02:51;;;;;;;;;;;;;;;;;;5008178;28;19940;-77
2021/11/21 14:05:19;;;;;;;;;;;;;;;;;;5009869;28;19914;-77
2021/11/21 14:07:45;;;;;;;;;;;;;;;;;;5008333;28;19913;-77
2021/11/21 14:10:11;;;;;;;;;;;;;;;;;;5008160;28;19936;-78
2021/11/21 14:12:37;;;;;;;;;;;;;;;;;;5010233;28;20110;-77
2021/11/21 14:15:03;;;;;;;;;;;;;;;;;;5007615;28;20431;-77
2021/11/21 14:17:29;;;;;;;;;;;;;;;;;;5008085;28;19921;-76
2021/11/21 14:19:55;;;;;;;;;;;;;;;;;;5007793;28;19921;-75
2021/11/21 14:22:20;;;;;;;;;;;;;;;;;;5007883;28;20017;-77
2021/11/21 14:24:46;;;;;;;;;;;;;;;;;;5007701;28;19913;-78
2021/11/21 14:27:12;;;;;;;;;;;;;;;;;;5008071;28;19914;-75
2021/11/21 14:29:38;;;;;;;;;;;;;;;;;;5013963;28;20610;-77
2021/11/21 14:32:05;;;;;;;;;;;;;;;;;;5027008;28;19921;-77
2021/11/21 14:34:31;;;;;;;;;;;;;;;;;;5028393;28;19984;-78
2021/11/21 14:36:57;;;;;;;;;;;;;;;;;;5027508;28;20083;-77
2021/11/21 14:39:23;;;;;;;;;;;;;;;;;;5026941;28;19918;-76
2021/11/21 14:41:50;;;;;;;;;;;;;;;;;;5027430;28;20263;-78
2021/11/21 14:44:16;;;;;;;;;;;;;;;;;;5028704;28;20149;-77
2021/11/21 14:46:42;;;;;;;;;;;;;;;;;;5019096;28;20298;-76
2021/11/21 14:49:08;;;;;;;;;;;;;;;;;;5007008;28;20015;-76
2021/11/21 14:51:34;;;;;;;;;;;;;;;;;;5008676;28;20413;-77
2021/11/21 14:54:02;;;;;;;;;;;;;;;;;;5007561;28;20025;-76
2021/11/21 14:56:28;;;;;;;;;;;;;;;;;;5008448;28;20409;-77
2021/11/21 14:58:54;;;;;;;;;;;;;;;;;;5006517;28;19956;-77
2021/11/21 15:01:20;;;;;;;;;;;;;;;;;;5008632;28;19948;-76
2021/11/21 15:03:46;;;;;;;;;;;;;;;;;;5016782;28;19909;-77
2021/11/21 15:06:12;;;;;;;;;;;;;;;;;;5026981;28;19919;-76
2021/11/21 15:08:38;;;;;;;;;;;;;;;;;;5026848;28;19949;-76
2021/11/21 15:11:04;;;;;;;;;;;;;;;;;;5026915;28;19971;-77
2021/11/21 15:13:30;;;;;;;;;;;;;;;;;;5026369;28;19913;-78
2021/11/21 15:15:56;;;;;;;;;;;;;;;;;;5026674;28;19917;-76
2021/11/21 15:18:22;;;;;;;;;;;;;;;;;;5022245;28;19918;-77
2021/11/21 15:20:48;;;;;;;;;;;;;;;;;;5015441;28;20377;-77
2021/11/21 15:23:14;;;;;;;;;;;;;;;;;;5026557;28;19960;-76
2021/11/21 15:25:40;;;;;;;;;;;;;;;;;;5026534;28;19916;-77
2021/11/21 15:28:05;;;;;;;;;;;;;;;;;;5026318;28;19909;-76
2021/11/21 15:30:31;;;;;;;;;;;;;;;;;;5024209;28;19917;-75
2021/11/21 15:32:57;;;;;;;;;;;;;;;;;;5025909;28;20012;-76
2021/11/21 15:35:24;;;;;;;;;;;;;;;;;;5027887;28;19936;-76
2021/11/21 15:37:53;;;;;;;;;;;;;;;;;;5027036;28;20331;-76
2021/11/21 15:40:19;;;;;;;;;;;;;;;;;;5028067;28;19913;-77
2021/11/21 15:42:45;;;;;;;;;;;;;;;;;;5027324;28;19913;-77
2021/11/21 15:45:11;;;;;;;;;;;;;;;;;;5027649;28;20010;-76
2021/11/21 15:47:37;;;;;;;;;;;;;;;;;;5026005;28;19914;-77
2021/11/21 15:50:03;;;;;;;;;;;;;;;;;;5026172;28;19909;-76
2021/11/21 15:52:29;;;;;;;;;;;;;;;;;;5027744;28;19913;-76
2021/11/21 15:54:54;;;;;;;;;;;;;;;;;;5026315;28;20044;-77
2021/11/21 15:57:22;;;;;;;;;;;;;;;;;;5025924;28;19924;-77
2021/11/21 15:59:48;;;;;;;;;;;;;;;;;;5025540;28;19910;-77
2021/11/21 16:02:14;;;;;;;;;;;;;;;;;;5026552;28;20285;-76
2021/11/21 16:04:40;;;;;;;;;;;;;;;;;;5025706;28;19952;-77
2021/11/21 16:07:06;;;;;;;;;;;;;;;;;;5026196;28;20058;-77
2021/11/21 16:09:32;;;;;;;;;;;;;;;;;;5025914;28;20015;-77
2021/11/21 16:11:58;;;;;;;;;;;;;;;;;;5016413;28;20418;-77
2021/11/21 16:14:24;;;;;;;;;;;;;;;;;;5007204;28;20256;-76
2021/11/21 16:16:50;;;;;;;;;;;;;;;;;;5005888;28;19918;-78
2021/11/21 16:19:16;;;;;;;;;;;;;;;;;;5018958;28;19909;-76
2021/11/21 16:21:42;;;;;;;;;;;;;;;;;;5025900;28;20456;-76
2021/11/21 16:24:07;;;;;;;;;;;;;;;;;;5025690;28;20087;-77
2021/11/21 16:26:33;;;;;;;;;;;;;;;;;;5025851;28;19964;-77
2021/11/21 16:29:00;;;;;;;;;;;;;;;;;;5014892;28;19985;-78
2021/11/21 16:31:26;;;;;;;;;;;;;;;;;;5007118;28;19913;-77
2021/11/21 16:33:52;;;;;;;;;;;;;;;;;;5005977;28;19921;-77
2021/11/21 16:36:18;;;;;;;;;;;;;;;;;;5010429;28;19917;-77
2021/11/21 16:38:44;;;;;;;;;;;;;;;;;;5021456;28;19967;-77